Time;durP1;ratioP1;P1;durP2;ratioP2;P2;SDS_P1;SDS_P2;PMS_P1;PMS_P2;Temp;Humidity;BMP_temperature;BMP_pressure;BME280_temperature;BME280_humidity;BME280_pressure;Samples;Min_cycle;Max_cycle;Signal;HPM_P1;HPM_P2
2021/11/03 00:00:45;;;;;;;0.40;0.40;;;;;;;0.44;89.11;96852.44;6269408;28;20202;-71
2021/11/03 00:03:50;;;;;;;0.30;0.30;;;;;;;0.45;88.65;96845.50;6269307;28;20738;-71
2021/11/03 00:06:52;;;;;;;0.40;0.37;;;;;;;0.43;88.81;96850.75;6242866;28;20203;-71
2021/11/03 00:09:57;;;;;;;0.70;0.70;;;;;;;0.43;89.14;96842.97;6256655;28;20713;-72
2021/11/03 00:13:00;;;;;;;1.20;0.80;;;;;;;0.43;88.75;96832.59;6263323;28;20792;-71
2021/11/03 00:16:02;;;;;;;1.00;0.70;;;;;;;0.43;88.75;96839.53;6268522;28;20196;-71
2021/11/03 00:19:05;;;;;;;0.40;0.40;;;;;;;0.44;89.04;96836.88;6259111;28;20689;-71
2021/11/03 00:22:08;;;;;;;0.90;0.40;;;;;;;0.44;88.89;96831.69;6284699;28;20199;-71
2021/11/03 00:25:10;;;;;;;0.27;0.27;;;;;;;0.45;88.61;96832.53;6267281;28;20265;-71
2021/11/03 00:28:17;;;;;;;0.30;0.30;;;;;;;0.46;88.55;96834.19;6268931;28;20211;-72
2021/11/03 00:31:20;;;;;;;0.27;0.20;;;;;;;0.50;89.00;96835.72;6267397;28;20292;-71
2021/11/03 00:34:22;;;;;;;0.23;0.23;;;;;;;0.51;88.62;96835.63;6268448;28;20202;-72
2021/11/03 00:37:24;;;;;;;0.20;0.20;;;;;;;0.52;88.63;96837.28;6267299;28;20223;-71
2021/11/03 00:40:26;;;;;;;0.30;0.30;;;;;;;0.52;89.03;96847.66;6266955;28;20662;-71
2021/11/03 00:43:28;;;;;;;0.20;0.20;;;;;;;0.51;89.08;96843.41;6267376;28;20202;-71
2021/11/03 00:46:32;;;;;;;0.30;0.30;;;;;;;0.50;88.98;96848.69;6266899;28;20194;-71
2021/11/03 00:49:35;;;;;;;0.20;0.20;;;;;;;0.48;88.86;96840.16;6266937;28;20203;-71
2021/11/03 00:52:38;;;;;;;1.13;0.50;;;;;;;0.44;88.39;96851.59;6268372;28;20270;-71
2021/11/03 00:55:42;;;;;;;0.63;0.60;;;;;;;0.43;88.91;96834.34;6268116;28;20195;-71
2021/11/03 00:58:44;;;;;;;0.90;0.40;;;;;;;0.39;88.99;96828.50;6284130;28;20199;-71
2021/11/03 01:01:47;;;;;;;0.30;0.30;;;;;;;0.41;88.63;96826.66;6300262;28;20812;-70
2021/11/03 01:04:50;;;;;;;0.30;0.30;;;;;;;0.43;89.24;96827.41;6268205;28;20270;-71
2021/11/03 01:07:53;;;;;;;0.30;0.30;;;;;;;0.47;89.50;96826.34;6266827;28;20619;-71
2021/11/03 01:10:55;;;;;;;2.13;0.40;;;;;;;0.49;89.67;96824.50;6267391;28;20281;-71
2021/11/03 01:13:58;;;;;;;0.60;0.40;;;;;;;0.54;89.20;96819.88;6266783;28;20201;-71
2021/11/03 01:17:01;;;;;;;0.30;0.30;;;;;;;0.57;89.55;96814.53;6266013;28;20225;-71
2021/11/03 01:20:06;;;;;;;0.20;0.20;;;;;;;0.59;89.02;96810.09;6287968;28;20202;-71
2021/11/03 01:23:09;;;;;;;0.30;0.30;;;;;;;0.62;89.46;96809.91;6272187;28;20199;-71
2021/11/03 01:26:11;;;;;;;0.30;0.30;;;;;;;0.65;89.53;96806.31;6271159;28;20549;-71
2021/11/03 01:29:14;;;;;;;0.30;0.30;;;;;;;0.69;89.32;96795.69;6272804;28;20344;-70
2021/11/03 01:32:17;;;;;;;0.20;0.20;;;;;;;0.73;88.97;96799.78;6271060;28;20191;-71
2021/11/03 01:35:20;;;;;;;0.20;0.20;;;;;;;0.76;89.51;96792.75;6246856;28;20196;-71
2021/11/03 01:38:22;;;;;;;1.40;0.30;;;;;;;0.83;88.96;96797.50;6249775;28;20212;-71
2021/11/03 01:41:25;;;;;;;0.53;0.40;;;;;;;0.91;89.25;96791.88;6254542;28;20254;-72
2021/11/03 01:44:27;;;;;;;1.23;0.37;;;;;;;0.95;89.18;96789.03;6271041;28;20241;-72
2021/11/03 01:47:41;;;;;;;0.60;0.30;;;;;;;0.97;89.58;96795.00;6270586;28;20768;-71
2021/11/03 01:50:58;;;;;;;0.30;0.30;;;;;;;1.02;88.91;96797.31;6270858;28;20582;-72
2021/11/03 01:54:02;;;;;;;0.10;0.10;;;;;;;1.06;89.55;96802.25;6270813;28;20196;-71
2021/11/03 01:57:08;;;;;;;0.40;0.40;;;;;;;1.10;89.37;96795.94;6270680;28;20203;-71
2021/11/03 02:00:19;;;;;;;0.30;0.30;;;;;;;1.15;89.50;96798.28;6272003;28;20678;-73
2021/11/03 02:03:30;;;;;;;0.20;0.20;;;;;;;1.13;89.47;96802.72;6271235;28;20215;-72
2021/11/03 02:06:33;;;;;;;0.27;0.27;;;;;;;1.07;89.55;96800.50;6270430;28;20601;-72
2021/11/03 02:09:35;;;;;;;1.90;0.40;;;;;;;1.00;89.25;96812.13;6271922;28;20241;-71
2021/11/03 02:12:38;;;;;;;0.20;0.20;;;;;;;0.96;89.41;96810.66;6270139;28;20318;-72
2021/11/03 02:15:43;;;;;;;0.20;0.20;;;;;;;0.88;89.33;96805.91;6269938;28;20199;-71
2021/11/03 02:18:47;;;;;;;0.30;0.30;;;;;;;0.85;89.47;96802.63;6270152;28;20206;-71
2021/11/03 02:22:03;;;;;;;1.47;0.20;;;;;;;0.83;89.48;96802.69;6270256;28;20195;-71
2021/11/03 02:25:08;;;;;;;0.40;0.40;;;;;;;0.81;90.02;96803.69;6269843;28;20183;-72
2021/11/03 02:28:13;;;;;;;1.30;0.23;;;;;;;0.74;89.67;96801.44;6271165;28;20211;-71
2021/11/03 02:31:35;;;;;;;0.50;0.30;;;;;;;0.65;89.49;96807.16;6269528;28;20203;-72
2021/11/03 02:34:37;;;;;;;0.40;0.37;;;;;;;0.59;89.77;96801.47;6271129;28;20199;-71
2021/11/03 02:37:45;;;;;;;0.40;0.40;;;;;;;0.55;89.48;96798.19;6269406;28;20559;-71
2021/11/03 02:40:51;;;;;;;0.30;0.30;;;;;;;0.53;89.95;96794.00;6253156;28;20675;-72
2021/11/03 02:44:08;;;;;;;0.30;0.30;;;;;;;0.50;89.83;96796.78;6269753;28;20206;-72
2021/11/03 02:47:11;;;;;;;1.70;0.30;;;;;;;0.48;89.83;96788.25;6270512;28;20283;-71
2021/11/03 02:50:15;;;;;;;0.30;0.30;;;;;;;0.39;89.70;96792.19;6269357;28;20211;-71
2021/11/03 02:53:17;;;;;;;0.60;0.30;;;;;;;0.36;90.13;96792.34;6270215;28;20670;-71
2021/11/03 02:56:23;;;;;;;0.50;0.30;;;;;;;0.33;89.86;96785.53;6269412;28;20202;-71
2021/11/03 02:59:26;;;;;;;0.30;0.30;;;;;;;0.30;89.97;96779.69;6270910;28;20191;-72
2021/11/03 03:02:29;;;;;;;0.73;0.30;;;;;;;0.25;90.11;96773.91;6268611;28;20547;-71
2021/11/03 03:05:31;;;;;;;0.63;0.30;;;;;;;0.22;90.17;96769.72;6270617;28;20226;-71
2021/11/03 03:08:33;;;;;;;0.30;0.30;;;;;;;0.19;89.53;96764.72;6268440;28;20674;-71
2021/11/03 03:11:39;;;;;;;0.20;0.20;;;;;;;0.21;89.67;96778.41;6268832;28;20234;-71
2021/11/03 03:14:44;;;;;;;2.30;0.40;;;;;;;0.20;90.31;96770.75;6268330;28;20207;-71
2021/11/03 03:17:49;;;;;;;0.30;0.30;;;;;;;0.17;89.85;96770.91;6270088;28;20191;-71
2021/11/03 03:20:51;;;;;;;0.63;0.40;;;;;;;0.16;90.15;96762.28;6269898;28;20537;-71
2021/11/03 03:24:17;;;;;;;0.57;0.50;;;;;;;0.20;89.88;96762.97;6268251;28;20291;-71
2021/11/03 03:27:19;;;;;;;1.37;0.90;;;;;;;0.17;89.95;96756.16;6268477;28;20206;-71
2021/11/03 03:30:21;;;;;;;2.07;1.00;;;;;;;0.18;90.22;96754.41;6269175;28;20535;-71
2021/11/03 03:33:25;;;;;;;1.00;0.90;;;;;;;0.22;90.38;96745.53;6260423;28;20199;-72
2021/11/03 03:36:28;;;;;;;0.97;0.70;;;;;;;0.25;89.90;96748.81;6262511;28;20228;-71
2021/11/03 03:39:31;;;;;;;2.07;0.50;;;;;;;0.26;90.55;96745.28;6267898;28;20202;-71
2021/11/03 03:42:34;;;;;;;0.40;0.40;;;;;;;0.28;90.24;96748.66;6269240;28;20191;-71
2021/11/03 03:45:36;;;;;;;0.30;0.30;;;;;;;0.30;90.30;96746.78;6268775;28;20199;-71
2021/11/03 03:48:40;;;;;;;0.47;0.43;;;;;;;0.28;89.97;96753.00;6267940;28;20628;-71
2021/11/03 03:51:42;;;;;;;1.23;0.70;;;;;;;0.32;90.22;96746.69;6267604;28;20191;-72
2021/11/03 03:54:44;;;;;;;0.63;0.60;;;;;;;0.33;89.95;96757.00;6280170;28;20195;-71
2021/11/03 03:57:47;;;;;;;0.50;0.50;;;;;;;0.31;90.19;96747.63;6268828;28;20278;-71
2021/11/03 04:00:51;;;;;;;0.63;0.40;;;;;;;0.27;90.64;96751.31;6259147;28;20196;-71
2021/11/03 04:03:54;;;;;;;0.40;0.40;;;;;;;0.25;90.46;96751.41;6261227;28;20206;-72
2021/11/03 04:06:57;;;;;;;1.07;0.50;;;;;;;0.23;90.00;96762.78;6267467;28;20191;-71
2021/11/03 04:10:00;;;;;;;0.43;0.43;;;;;;;0.18;90.41;96754.41;6267399;28;20710;-71
2021/11/03 04:13:04;;;;;;;0.83;0.50;;;;;;;0.13;90.30;96744.28;6268729;28;20252;-71
2021/11/03 04:16:07;;;;;;;0.53;0.50;;;;;;;0.11;90.20;96735.72;6268309;28;20186;-72
2021/11/03 04:19:10;;;;;;;0.40;0.40;;;;;;;0.07;90.31;96734.25;6267505;28;20194;-71
2021/11/03 04:22:14;;;;;;;0.53;0.33;;;;;;;0.10;90.59;96738.44;6266987;28;20199;-71
2021/11/03 04:25:19;;;;;;;0.60;0.37;;;;;;;0.06;90.72;96734.31;6267289;28;20736;-71
2021/11/03 04:28:27;;;;;;;1.53;0.60;;;;;;;0.04;90.33;96734.38;6268399;28;20215;-71
2021/11/03 04:31:30;;;;;;;0.67;0.40;;;;;;;0.06;90.57;96739.50;6268297;28;20556;-71
2021/11/03 04:34:33;;;;;;;0.40;0.30;;;;;;;0.11;90.48;96734.88;6268552;28;20626;-71
2021/11/03 04:37:39;;;;;;;0.33;0.33;;;;;;;0.09;90.60;96727.22;6300122;28;20221;-71
2021/11/03 04:40:42;;;;;;;2.93;0.70;;;;;;;0.09;90.41;96723.78;6267061;28;20191;-71
2021/11/03 04:43:46;;;;;;;2.57;0.80;;;;;;;0.08;90.16;96728.13;6266567;28;20215;-71
2021/11/03 04:46:50;;;;;;;1.03;0.70;;;;;;;0.06;90.36;96719.59;6267115;28;20195;-71
2021/11/03 04:49:58;;;;;;;0.50;0.50;;;;;;;0.07;90.32;96718.69;6266941;28;20212;-72
2021/11/03 04:53:02;;;;;;;0.60;0.60;;;;;;;0.09;90.14;96718.59;6301364;28;20195;-72
2021/11/03 04:56:09;;;;;;;1.83;0.70;;;;;;;0.11;90.22;96711.53;6255839;28;20294;-71
2021/11/03 04:59:14;;;;;;;0.83;0.50;;;;;;;0.11;90.72;96714.97;6272968;28;20198;-71
2021/11/03 05:02:17;;;;;;;2.50;0.53;;;;;;;0.12;90.87;96706.28;6272081;28;20538;-71
2021/11/03 05:05:21;;;;;;;0.60;0.60;;;;;;;0.14;90.49;96701.00;6271952;28;20195;-71
2021/11/03 05:08:23;;;;;;;1.27;0.63;;;;;;;0.15;90.59;96713.06;6271456;28;20214;-71
2021/11/03 05:11:26;;;;;;;3.40;0.87;;;;;;;0.19;90.70;96704.22;6271490;28;20233;-71
2021/11/03 05:14:29;;;;;;;3.30;0.60;;;;;;;0.26;90.45;96697.75;6271105;28;20219;-72
2021/11/03 05:17:32;;;;;;;0.97;0.60;;;;;;;0.31;90.56;96698.31;6273275;28;20406;-72
2021/11/03 05:20:34;;;;;;;1.30;0.60;;;;;;;0.31;90.83;96691.38;6271191;28;20670;-72
2021/11/03 05:23:42;;;;;;;0.50;0.50;;;;;;;0.38;90.48;96691.06;6271446;28;20285;-71
2021/11/03 05:26:44;;;;;;;2.33;1.70;;;;;;;0.37;90.80;96687.63;6272477;28;20321;-71
2021/11/03 05:29:46;;;;;;;1.37;1.20;;;;;;;0.39;90.73;96688.38;6272098;28;20721;-71
2021/11/03 05:32:49;;;;;;;0.90;0.90;;;;;;;0.40;90.71;96699.59;6272274;28;20198;-72
2021/11/03 05:35:51;;;;;;;0.83;0.80;;;;;;;0.40;90.82;96699.59;6272024;28;20187;-72
2021/11/03 05:38:55;;;;;;;0.83;0.70;;;;;;;0.38;90.85;96698.84;6271416;28;20211;-72
2021/11/03 05:41:58;;;;;;;0.67;0.67;;;;;;;0.33;90.64;96702.50;6272201;28;20541;-71
2021/11/03 05:45:00;;;;;;;1.97;1.77;;;;;;;0.31;90.67;96681.00;6270883;28;20926;-71
2021/11/03 05:48:02;;;;;;;1.83;1.30;;;;;;;0.27;91.00;96694.25;6262764;28;20207;-72
2021/11/03 05:51:04;;;;;;;2.40;1.40;;;;;;;0.23;90.63;96693.56;6267298;28;20198;-73
2021/11/03 05:54:08;;;;;;;1.20;1.10;;;;;;;0.21;90.52;96689.38;6271935;28;20317;-71
2021/11/03 05:57:20;;;;;;;0.73;0.73;;;;;;;0.18;91.10;96677.44;6304140;28;20195;-71
2021/11/03 06:00:25;;;;;;;1.97;0.80;;;;;;;0.16;91.15;96691.41;6270235;28;20696;-72
2021/11/03 06:03:27;;;;;;;2.03;0.90;;;;;;;0.18;90.63;96694.75;6271436;28;20352;-72
2021/11/03 06:06:30;;;;;;;1.00;0.70;;;;;;;0.19;90.62;96699.00;6271051;28;20274;-71
2021/11/03 06:09:32;;;;;;;0.60;0.60;;;;;;;0.22;90.94;96691.88;6271162;28;20229;-71
2021/11/03 06:12:34;;;;;;;1.40;0.70;;;;;;;0.24;90.65;96694.41;6270786;28;20269;-72
2021/11/03 06:15:38;;;;;;;0.60;0.60;;;;;;;0.26;91.31;96677.84;6271172;28;20278;-71
2021/11/03 06:18:40;;;;;;;0.77;0.77;;;;;;;0.29;90.61;96669.88;6271044;28;20202;-71
2021/11/03 06:21:42;;;;;;;0.73;0.70;;;;;;;0.30;90.82;96678.50;6269383;28;20199;-72
2021/11/03 06:24:46;;;;;;;0.70;0.70;;;;;;;0.35;90.72;96668.69;6270785;28;20209;-72
2021/11/03 06:27:48;;;;;;;2.10;0.80;;;;;;;0.40;90.65;96677.03;6270616;28;20686;-72
2021/11/03 06:30:51;;;;;;;1.30;0.90;;;;;;;0.45;90.39;96669.84;6270622;28;20215;-72
2021/11/03 06:33:54;;;;;;;1.07;0.80;;;;;;;0.47;90.19;96655.03;6269613;28;20218;-72
2021/11/03 06:36:56;;;;;;;1.83;1.03;;;;;;;0.51;90.63;96661.72;6270296;28;20219;-72
2021/11/03 06:39:59;;;;;;;5.40;3.23;;;;;;;0.62;90.37;96668.88;6270646;28;20233;-72
2021/11/03 06:43:01;;;;;;;3.73;1.77;;;;;;;0.68;90.45;96668.56;6268786;28;20249;-72
2021/11/03 06:46:03;;;;;;;1.63;1.00;;;;;;;0.77;89.97;96672.38;6270863;28;20242;-71
2021/11/03 06:49:06;;;;;;;0.93;0.90;;;;;;;0.84;90.43;96674.53;6260962;28;20230;-72
2021/11/03 06:52:08;;;;;;;1.30;0.83;;;;;;;0.92;90.42;96668.88;6248377;28;20586;-73
2021/11/03 06:55:10;;;;;;;1.13;1.03;;;;;;;1.01;90.38;96663.97;6286473;28;20573;-72
2021/11/03 06:58:12;;;;;;;5.80;2.77;;;;;;;1.14;90.09;96682.28;6269839;28;20203;-72
2021/11/03 07:01:15;;;;;;;4.13;3.73;;;;;;;1.27;90.13;96680.66;6268727;28;20195;-72
2021/11/03 07:04:17;;;;;;;5.03;4.47;;;;;;;1.39;90.00;96687.72;6269756;28;20195;-71
2021/11/03 07:07:19;;;;;;;5.70;4.67;;;;;;;1.54;89.95;96678.16;6269895;28;20200;-72
2021/11/03 07:10:32;;;;;;;4.90;4.40;;;;;;;1.65;89.84;96673.13;6268406;28;20239;-73
2021/11/03 07:13:35;;;;;;;7.23;4.57;;;;;;;1.79;90.06;96685.31;6269615;28;20191;-73
2021/11/03 07:16:37;;;;;;;5.00;4.50;;;;;;;1.91;90.08;96691.50;6268124;28;20517;-73
2021/11/03 07:19:41;;;;;;;5.73;4.23;;;;;;;1.97;89.56;96691.97;6269765;28;20194;-73
2021/11/03 07:22:44;;;;;;;4.33;3.93;;;;;;;2.02;89.91;96699.47;6269489;28;20273;-73
2021/11/03 07:25:48;;;;;;;6.53;5.43;;;;;;;2.11;89.83;96689.34;6269600;28;20717;-73
2021/11/03 07:28:51;;;;;;;6.00;5.40;;;;;;;2.20;89.49;96683.56;6268897;28;20216;-73
2021/11/03 07:31:53;;;;;;;7.80;6.17;;;;;;;2.26;89.64;96686.72;6269326;28;20199;-73
2021/11/03 07:34:55;;;;;;;6.10;5.50;;;;;;;2.29;89.46;96673.50;6244179;28;20204;-73
2021/11/03 07:37:58;;;;;;;7.20;5.47;;;;;;;2.28;89.39;96679.66;6265621;28;20231;-73
2021/11/03 07:41:00;;;;;;;5.90;5.10;;;;;;;2.27;89.44;96676.22;6267372;28;20199;-72
2021/11/03 07:44:06;;;;;;;5.77;4.10;;;;;;;2.28;89.38;96682.25;6267743;28;20199;-73
2021/11/03 07:47:08;;;;;;;5.33;4.23;;;;;;;2.30;89.54;96672.56;6267921;28;20207;-74
2021/11/03 07:50:17;;;;;;;4.87;4.07;;;;;;;2.30;89.52;96664.75;6268526;28;20286;-72
2021/11/03 07:53:21;;;;;;;5.37;4.27;;;;;;;2.32;89.54;96668.09;6269823;28;20193;-71
2021/11/03 07:56:25;;;;;;;4.90;3.80;;;;;;;2.36;89.63;96673.03;6268598;28;20277;-73
2021/11/03 07:59:27;;;;;;;4.13;3.60;;;;;;;2.42;89.61;96666.56;6267909;28;20192;-72
2021/11/03 08:02:30;;;;;;;4.23;3.33;;;;;;;2.45;89.41;96655.97;6267547;28;20195;-73
2021/11/03 08:05:33;;;;;;;3.83;3.43;;;;;;;2.54;89.16;96660.59;6268128;28;20199;-73
2021/11/03 08:08:38;;;;;;;3.83;3.37;;;;;;;2.67;89.35;96661.47;6268559;28;20192;-72
2021/11/03 08:11:54;;;;;;;4.37;3.93;;;;;;;2.91;89.39;96665.06;6268013;28;20242;-73
2021/11/03 08:14:56;;;;;;;5.07;3.90;;;;;;;3.15;89.52;96672.19;6267230;28;20209;-73
2021/11/03 08:17:58;;;;;;;4.00;3.57;;;;;;;3.40;89.70;96666.97;6258739;28;20203;-72
2021/11/03 08:21:01;;;;;;;3.97;3.57;;;;;;;3.82;89.55;96650.16;6250370;28;20188;-71
2021/11/03 08:24:03;;;;;;;4.30;3.90;;;;;;;4.26;89.10;96652.25;6267145;28;20196;-73
2021/11/03 08:27:06;;;;;;;4.20;3.80;;;;;;;4.69;88.65;96646.53;6299397;28;20233;-73
2021/11/03 08:30:12;;;;;;;5.47;4.40;;;;;;;4.99;88.09;96636.38;6267076;28;20241;-72
2021/11/03 08:33:19;;;;;;;6.13;4.27;;;;;;;5.28;87.76;96644.69;6264574;28;20203;-73
2021/11/03 08:36:25;;;;;;;6.93;6.17;;;;;;;5.48;86.70;96636.16;6267156;28;20677;-72
2021/11/03 08:39:28;;;;;;;6.50;5.90;;;;;;;5.68;86.91;96632.00;6266909;28;20249;-73
2021/11/03 08:42:31;;;;;;;5.47;4.87;;;;;;;5.82;86.46;96615.19;6267501;28;20195;-73
2021/11/03 08:45:35;;;;;;;5.27;4.70;;;;;;;6.03;85.88;96616.16;6267030;28;20559;-73
2021/11/03 08:48:38;;;;;;;4.73;4.33;;;;;;;6.42;85.45;96611.31;6249732;28;20718;-73
2021/11/03 08:51:40;;;;;;;4.47;4.07;;;;;;;6.78;84.02;96615.38;6267894;28;20210;-71
2021/11/03 08:54:49;;;;;;;3.80;3.50;;;;;;;7.07;83.49;96616.41;6267781;28;20276;-71
2021/11/03 08:57:59;;;;;;;4.07;3.47;;;;;;;7.35;82.70;96612.31;6267763;28;20267;-73
2021/11/03 09:01:01;;;;;;;3.73;3.40;;;;;;;7.56;82.89;96597.34;6267596;28;20183;-72
2021/11/03 09:04:04;;;;;;;3.10;2.80;;;;;;;7.94;81.50;96601.94;6267322;28;20309;-72
2021/11/03 09:07:12;;;;;;;3.57;2.63;;;;;;;8.29;81.64;96587.47;6268637;28;20187;-72
2021/11/03 09:10:17;;;;;;;2.50;2.00;;;;;;;8.37;81.02;96596.41;6267187;28;20307;-71
2021/11/03 09:13:23;;;;;;;2.93;2.63;;;;;;;8.51;80.81;96589.91;6268260;28;20210;-71
2021/11/03 09:16:26;;;;;;;2.60;2.40;;;;;;;8.64;79.64;96576.50;6266719;28;20272;-72
2021/11/03 09:19:28;;;;;;;3.00;2.70;;;;;;;8.82;77.66;96578.28;6249363;28;20340;-72
2021/11/03 09:22:30;;;;;;;2.80;2.30;;;;;;;9.03;78.11;96575.50;6267635;28;20559;-71
2021/11/03 09:25:33;;;;;;;3.23;2.73;;;;;;;8.93;78.18;96582.56;6267594;28;20198;-72
2021/11/03 09:28:35;;;;;;;2.90;2.53;;;;;;;9.00;77.23;96582.81;6266141;28;20232;-72
2021/11/03 09:31:39;;;;;;;3.07;2.77;;;;;;;8.93;77.71;96585.19;6266177;28;20214;-72
2021/11/03 09:34:43;;;;;;;3.23;2.90;;;;;;;8.82;76.94;96586.16;6267841;28;20202;-71
2021/11/03 09:37:45;;;;;;;3.50;2.63;;;;;;;8.86;77.78;96586.72;6268164;28;20225;-72
2021/11/03 09:40:53;;;;;;;5.80;3.00;;;;;;;8.87;78.93;96581.34;6271446;28;20201;-71
2021/11/03 09:44:02;;;;;;;4.27;2.60;;;;;;;8.93;78.37;96579.09;6272262;28;20201;-71
2021/11/03 09:47:14;;;;;;;4.17;2.93;;;;;;;8.94;78.08;96580.78;6271328;28;20667;-71
2021/11/03 09:50:22;;;;;;;3.77;3.30;;;;;;;8.96;78.37;96577.03;6271824;28;20207;-71
2021/11/03 09:53:30;;;;;;;5.53;3.30;;;;;;;8.95;78.35;96579.81;6270369;28;20195;-71
2021/11/03 09:56:42;;;;;;;4.17;3.33;;;;;;;8.98;78.72;96572.47;6271301;28;20192;-71
2021/11/03 09:59:56;;;;;;;4.23;3.60;;;;;;;9.04;78.00;96573.69;6247081;28;20660;-71
2021/11/03 10:03:22;;;;;;;3.80;3.17;;;;;;;9.03;77.50;96548.34;6269926;28;20205;-71
2021/11/03 10:06:39;;;;;;;4.63;3.40;;;;;;;9.17;78.03;96542.66;6271674;28;20312;-70
2021/11/03 10:09:41;;;;;;;5.70;3.97;;;;;;;9.22;77.91;96540.41;6270950;28;20750;-71
2021/11/03 10:12:43;;;;;;;5.07;3.60;;;;;;;9.31;77.50;96538.72;6271017;28;20227;-71
2021/11/03 10:15:57;;;;;;;5.77;4.33;;;;;;;9.37;77.33;96531.09;6271217;28;20195;-72
2021/11/03 10:19:09;;;;;;;5.03;3.53;;;;;;;9.44;77.65;96523.44;6270820;28;20364;-71
2021/11/03 10:22:35;;;;;;;4.37;3.90;;;;;;;9.49;77.34;96531.72;6269905;28;20202;-71
2021/11/03 10:25:38;;;;;;;4.43;3.47;;;;;;;9.59;77.58;96528.06;6270756;28;20191;-73
2021/11/03 10:28:47;;;;;;;5.60;4.00;;;;;;;9.66;77.63;96523.06;6271676;28;20624;-71
2021/11/03 10:32:14;;;;;;;4.60;2.93;;;;;;;9.74;77.74;96528.44;6270384;28;20687;-71
2021/11/03 10:35:26;;;;;;;4.87;3.23;;;;;;;9.96;78.10;96527.22;6269777;28;20192;-71
2021/11/03 10:38:41;;;;;;;3.23;2.93;;;;;;;10.05;76.41;96512.31;6270949;28;20211;-71
2021/11/03 10:41:43;;;;;;;2.80;2.30;;;;;;;10.43;76.18;96496.25;6270693;28;20175;-72
2021/11/03 10:44:50;;;;;;;2.53;2.20;;;;;;;10.93;76.14;96485.09;6270654;28;20196;-71
2021/11/03 10:48:10;;;;;;;2.10;1.90;;;;;;;11.27;75.32;96471.94;6260640;28;20203;-72
2021/11/03 10:51:22;;;;;;;2.17;1.63;;;;;;;11.55;75.08;96464.63;6267926;28;20814;-72
2021/11/03 10:54:38;;;;;;;2.10;1.80;;;;;;;11.90;74.08;96474.19;6270029;28;20203;-71
2021/11/03 10:57:54;;;;;;;2.33;1.70;;;;;;;12.16;72.34;96473.13;6270294;28;20188;-70
2021/11/03 11:01:06;;;;;;;5.77;2.27;;;;;;;12.32;69.06;96459.09;6269435;28;20730;-71
2021/11/03 11:04:38;;;;;;;3.70;1.70;;;;;;;12.47;68.64;96460.09;6270118;28;20287;-70
2021/11/03 11:07:51;;;;;;;2.07;1.70;;;;;;;12.66;68.79;96444.88;6242097;28;21048;-70
2021/11/03 11:11:07;;;;;;;2.30;1.77;;;;;;;13.00;67.82;96440.19;6257763;28;20310;-70
2021/11/03 11:14:18;;;;;;;2.80;1.60;;;;;;;12.89;66.20;96428.13;6242193;28;20201;-70
2021/11/03 11:17:46;;;;;;;4.43;1.90;;;;;;;12.99;65.80;96427.13;6257769;28;20664;-70
2021/11/03 11:20:54;;;;;;;4.17;1.70;;;;;;;12.81;66.77;96444.03;6258319;28;20241;-71
2021/11/03 11:23:59;;;;;;;4.03;1.50;;;;;;;12.47;67.83;96446.88;6224947;28;20660;-71
2021/11/03 11:27:20;;;;;;;2.70;1.43;;;;;;;12.10;68.52;96449.13;6241732;28;20232;-71
2021/11/03 11:30:29;;;;;;;2.73;1.70;;;;;;;12.07;69.66;96445.00;6241353;28;20611;-71
2021/11/03 11:33:36;;;;;;;1.43;1.33;;;;;;;12.08;71.07;96429.94;6225037;28;20244;-70
2021/11/03 11:36:42;;;;;;;2.83;1.40;;;;;;;12.15;71.11;96423.88;6225038;28;20202;-70
2021/11/03 11:39:49;;;;;;;2.33;1.20;;;;;;;12.04;71.28;96418.88;6257617;28;20184;-70
2021/11/03 11:43:22;;;;;;;3.40;1.40;;;;;;;12.10;72.20;96426.16;6246337;28;20213;-70
2021/11/03 11:46:28;;;;;;;2.03;1.20;;;;;;;12.07;72.15;96415.09;6268796;28;20318;-70
2021/11/03 11:49:34;;;;;;;1.30;1.10;;;;;;;12.13;72.48;96419.72;6269147;28;20542;-70
2021/11/03 11:52:36;;;;;;;2.67;1.30;;;;;;;12.16;72.11;96409.66;6267419;28;20581;-70
2021/11/03 11:55:39;;;;;;;2.87;1.37;;;;;;;12.29;70.03;96395.09;6268890;28;20243;-70
2021/11/03 11:58:47;;;;;;;2.03;1.30;;;;;;;12.47;70.15;96403.72;6268644;28;20207;-69
2021/11/03 12:01:49;;;;;;;2.50;1.13;;;;;;;12.57;70.00;96412.31;6266838;28;20683;-71
2021/11/03 12:05:13;;;;;;;2.80;1.20;;;;;;;12.45;66.75;96409.16;6267323;28;20221;-70
2021/11/03 12:08:24;;;;;;;2.73;1.27;;;;;;;12.52;67.60;96402.19;6268392;28;20185;-71
2021/11/03 12:11:57;;;;;;;2.00;1.30;;;;;;;12.50;66.74;96404.19;6268172;28;20690;-70
2021/11/03 12:15:00;;;;;;;4.43;1.70;;;;;;;12.48;66.81;96400.88;6266158;28;20207;-70
2021/11/03 12:18:02;;;;;;;3.63;1.43;;;;;;;12.40;66.94;96403.53;6267207;28;20672;-71
2021/11/03 12:21:04;;;;;;;5.07;1.40;;;;;;;12.33;67.57;96409.66;6268290;28;20217;-70
2021/11/03 12:24:07;;;;;;;6.07;1.70;;;;;;;12.32;66.84;96413.28;6268121;28;20633;-70
2021/11/03 12:27:25;;;;;;;3.97;1.60;;;;;;;12.35;67.27;96412.97;6268170;28;20190;-70
2021/11/03 12:30:38;;;;;;;3.40;1.37;;;;;;;12.39;67.31;96406.34;6267863;28;20216;-70
2021/11/03 12:34:03;;;;;;;3.57;1.67;;;;;;;12.35;67.82;96395.28;6258814;28;20261;-70
2021/11/03 12:37:05;;;;;;;2.53;1.37;;;;;;;12.45;67.92;96390.63;6257968;28;20249;-70
2021/11/03 12:40:28;;;;;;;2.03;1.40;;;;;;;12.68;66.55;96390.75;6268184;28;20198;-70
2021/11/03 12:43:33;;;;;;;2.80;1.30;;;;;;;12.89;65.61;96387.56;6268060;28;20195;-70
2021/11/03 12:46:35;;;;;;;2.60;1.33;;;;;;;13.18;64.77;96382.56;6267674;28;20200;-70
2021/11/03 12:49:37;;;;;;;5.60;1.63;;;;;;;13.74;62.81;96388.63;6268341;28;20704;-71
2021/11/03 12:52:45;;;;;;;3.13;1.23;;;;;;;14.43;60.79;96383.34;6267375;28;20195;-70
2021/11/03 12:55:55;;;;;;;3.33;1.60;;;;;;;14.96;58.33;96372.56;6267909;28;20308;-70
2021/11/03 12:59:01;;;;;;;2.97;1.57;;;;;;;14.71;59.12;96364.00;6242353;28;20180;-70
2021/11/03 13:02:17;;;;;;;3.60;1.47;;;;;;;14.93;58.12;96361.47;6265883;28;20190;-70
2021/11/03 13:05:25;;;;;;;1.83;1.43;;;;;;;16.04;56.82;96361.25;6268296;28;20613;-70
2021/11/03 13:08:47;;;;;;;3.90;1.27;;;;;;;17.14;52.38;96353.53;6266175;28;20691;-70
2021/11/03 13:11:50;;;;;;;3.73;1.40;;;;;;;16.09;53.98;96353.50;6266316;28;20242;-70
2021/11/03 13:14:57;;;;;;;5.97;1.70;;;;;;;15.38;55.87;96347.97;6269945;28;20225;-71
2021/11/03 13:18:22;;;;;;;3.97;1.60;;;;;;;15.68;55.39;96346.09;6273639;28;20261;-70
2021/11/03 13:21:35;;;;;;;2.33;1.43;;;;;;;15.38;56.74;96340.00;6270895;28;20243;-71
2021/11/03 13:24:37;;;;;;;3.07;1.60;;;;;;;14.63;58.22;96350.81;6272578;28;20198;-70
2021/11/03 13:27:40;;;;;;;2.40;1.33;;;;;;;13.79;60.79;96351.78;6271616;28;20317;-71
2021/11/03 13:30:43;;;;;;;2.20;1.30;;;;;;;13.29;62.79;96342.44;6270531;28;20216;-70
2021/11/03 13:34:10;;;;;;;4.60;2.03;;;;;;;12.92;63.79;96344.88;6271175;28;20802;-70
2021/11/03 13:37:19;;;;;;;4.10;1.43;;;;;;;12.56;64.06;96347.13;6272105;28;20746;-70
2021/11/03 13:40:36;;;;;;;2.40;1.50;;;;;;;12.33;64.88;96346.16;6270996;28;20219;-70
2021/11/03 13:43:38;;;;;;;3.90;1.40;;;;;;;12.18;65.02;96341.53;6271851;28;20313;-70
2021/11/03 13:46:42;;;;;;;4.03;1.70;;;;;;;12.11;65.45;96355.59;6271825;28;20211;-70
2021/11/03 13:49:44;;;;;;;2.40;1.30;;;;;;;11.97;65.84;96361.53;6262400;28;20268;-71
2021/11/03 13:53:15;;;;;;;5.70;1.40;;;;;;;12.02;65.85;96375.09;6261794;28;20220;-71
2021/11/03 13:56:18;;;;;;;2.57;1.37;;;;;;;12.00;66.02;96377.88;6271654;28;20657;-70
2021/11/03 13:59:23;;;;;;;2.17;1.23;;;;;;;12.06;65.84;96392.28;6271396;28;20236;-70
2021/11/03 14:02:38;;;;;;;4.50;1.40;;;;;;;11.94;66.11;96391.78;6271516;28;20224;-70
2021/11/03 14:05:40;;;;;;;3.07;1.40;;;;;;;11.89;66.37;96388.78;6271732;28;20684;-71
2021/11/03 14:08:42;;;;;;;4.63;1.40;;;;;;;11.80;67.02;96393.22;6270982;28;20196;-70
2021/11/03 14:11:57;;;;;;;2.40;1.80;;;;;;;11.67;67.45;96378.81;6270003;28;20361;-70
2021/11/03 14:15:00;;;;;;;1.70;1.50;;;;;;;11.58;67.97;96371.84;6303619;28;20547;-70
2021/11/03 14:18:09;;;;;;;5.63;1.70;;;;;;;11.43;68.00;96375.09;6271322;28;20336;-70
2021/11/03 14:21:11;;;;;;;2.90;1.80;;;;;;;11.31;68.79;96380.81;6270682;28;20336;-70
2021/11/03 14:24:17;;;;;;;3.87;1.90;;;;;;;11.18;69.65;96369.91;6271185;28;20207;-70
2021/11/03 14:27:21;;;;;;;2.53;1.80;;;;;;;11.03;70.29;96357.28;6269878;28;20289;-70
2021/11/03 14:30:25;;;;;;;4.73;2.73;;;;;;;10.93;69.84;96366.31;6270613;28;20217;-70
2021/11/03 14:33:35;;;;;;;7.70;1.73;;;;;;;10.86;70.53;96354.72;6270720;28;20223;-70
2021/11/03 14:36:37;;;;;;;5.83;2.00;;;;;;;10.79;70.68;96369.53;6270242;28;20223;-71
2021/11/03 14:39:40;;;;;;;6.33;2.33;;;;;;;10.75;71.02;96376.94;6270881;28;20252;-70
2021/11/03 14:42:42;;;;;;;6.43;2.40;;;;;;;10.69;71.18;96377.53;6270549;28;20179;-70